Time;durP1;ratioP1;P1;durP2;ratioP2;P2;SDS_P1;SDS_P2;PMS_P1;PMS_P2;Temp;Humidity;BMP_temperature;BMP_pressure;BME280_temperature;BME280_humidity;BME280_pressure;Samples;Min_cycle;Max_cycle;Signal;HPM_P1;HPM_P2
2022/02/18 00:01:43;;;;;;;0.20;0.20;;;11.50;99.90;;;;;;5033684;28;20026;-73
2022/02/18 00:04:12;;;;;;;0.25;0.25;;;11.50;99.90;;;;;;5033870;28;20030;-73
2022/02/18 00:06:37;;;;;;;1.67;1.20;;;11.50;99.90;;;;;;5033018;28;20339;-73
2022/02/18 00:09:03;;;;;;;0.00;0.00;;;11.50;99.90;;;;;;5033173;28;20044;-73
2022/02/18 00:11:29;;;;;;;0.15;0.15;;;11.50;99.90;;;;;;5033259;28;20025;-72
2022/02/18 00:13:56;;;;;;;0.00;0.00;;;11.50;99.90;;;;;;5032296;28;20036;-72
2022/02/18 00:16:21;;;;;;;0.00;0.00;;;11.60;99.90;;;;;;5033564;28;20493;-74
2022/02/18 00:18:47;;;;;;;0.00;0.00;;;11.50;99.90;;;;;;5033456;28;20034;-73
2022/02/18 00:21:13;;;;;;;5.45;1.45;;;11.50;99.90;;;;;;5033471;28;20029;-72
2022/02/18 00:23:39;;;;;;;0.00;0.00;;;11.50;99.90;;;;;;5031502;28;20033;-73
2022/02/18 00:26:05;;;;;;;0.00;0.00;;;11.50;99.90;;;;;;5033657;28;20401;-73
2022/02/18 00:28:30;;;;;;;0.00;0.00;;;11.50;99.90;;;;;;5032989;28;20401;-74
2022/02/18 00:30:57;;;;;;;0.45;0.25;;;11.50;99.90;;;;;;5033609;28;20025;-72
2022/02/18 00:33:23;;;;;;;0.00;0.00;;;11.50;99.90;;;;;;5033420;28;20440;-74
2022/02/18 00:35:49;;;;;;;0.55;0.40;;;11.50;99.90;;;;;;5033582;28;20021;-74
2022/02/18 00:38:15;;;;;;;0.00;0.00;;;11.50;99.90;;;;;;5030493;28;20036;-74
2022/02/18 00:40:45;;;;;;;2.20;1.55;;;11.50;99.90;;;;;;5013456;28;20393;-73
2022/02/18 00:43:14;;;;;;;0.10;0.10;;;11.50;99.90;;;;;;5012736;28;20513;-73
2022/02/18 00:45:39;;;;;;;0.52;0.52;;;11.50;99.90;;;;;;5013265;28;20022;-72
2022/02/18 00:48:05;;;;;;;0.43;0.35;;;11.50;99.90;;;;;;5018290;28;20032;-73
2022/02/18 00:50:31;;;;;;;0.10;0.10;;;11.50;99.90;;;;;;5031805;28;20485;-72
2022/02/18 00:52:56;;;;;;;0.75;0.75;;;11.50;99.90;;;;;;5032986;28;20022;-72
2022/02/18 00:55:22;;;;;;;0.20;0.20;;;11.50;99.90;;;;;;5032784;28;20025;-74
2022/02/18 00:57:48;;;;;;;0.00;0.00;;;11.60;99.90;;;;;;5033001;28;20461;-74
2022/02/18 01:00:16;;;;;;;0.52;0.52;;;11.60;99.90;;;;;;5032512;28;20048;-72
2022/02/18 01:02:44;;;;;;;3.13;1.45;;;11.60;99.90;;;;;;5032529;28;20060;-73
2022/02/18 01:05:13;;;;;;;0.28;0.28;;;11.60;99.90;;;;;;5032842;28;20024;-74
2022/02/18 01:07:39;;;;;;;9.55;1.75;;;11.60;99.90;;;;;;5032458;28;20049;-73
2022/02/18 01:10:07;;;;;;;0.52;0.30;;;11.50;99.90;;;;;;5032458;28;20029;-73
2022/02/18 01:12:33;;;;;;;0.00;0.00;;;11.50;99.90;;;;;;5031822;28;20022;-72
2022/02/18 01:15:00;;;;;;;0.00;0.00;;;11.50;99.90;;;;;;5033122;28;20508;-72
2022/02/18 01:17:25;;;;;;;3.30;1.02;;;11.50;99.90;;;;;;5032471;28;20033;-74
2022/02/18 01:19:51;;;;;;;0.15;0.15;;;11.50;99.90;;;;;;5032582;28;20103;-73
2022/02/18 01:22:17;;;;;;;0.40;0.40;;;11.50;99.90;;;;;;5033055;28;20044;-72
2022/02/18 01:24:42;;;;;;;0.43;0.30;;;11.50;99.90;;;;;;5032931;28;20156;-75
2022/02/18 01:27:09;;;;;;;1.20;1.00;;;11.50;99.90;;;;;;5032750;28;20041;-73
2022/02/18 01:29:39;;;;;;;2.45;1.55;;;11.50;99.90;;;;;;5032727;28;20373;-73
2022/02/18 01:32:09;;;;;;;19.70;0.73;;;11.60;99.90;;;;;;5033070;28;20022;-74
2022/02/18 01:34:35;;;;;;;0.10;0.10;;;11.50;99.90;;;;;;5031737;28;20032;-73
2022/02/18 01:37:01;;;;;;;0.20;0.20;;;11.50;99.90;;;;;;5032544;28;20030;-73
2022/02/18 01:39:27;;;;;;;1.48;1.08;;;11.50;99.90;;;;;;5019715;28;20031;-74
2022/02/18 01:41:52;;;;;;;0.00;0.00;;;11.50;99.90;;;;;;5028222;28;20393;-73
2022/02/18 01:44:35;;;;;;;0.65;0.65;;;11.40;99.90;;;;;;5012812;28;20046;-75
2022/02/18 01:47:00;;;;;;;0.50;0.50;;;11.40;99.90;;;;;;5013009;28;20047;-74
2022/02/18 01:49:26;;;;;;;2.00;0.77;;;11.40;99.90;;;;;;5028394;28;20022;-74
2022/02/18 01:51:52;;;;;;;0.65;0.65;;;11.40;99.90;;;;;;5032507;28;20029;-74
2022/02/18 01:54:18;;;;;;;1.13;0.45;;;11.40;99.90;;;;;;5030752;28;20028;-73
2022/02/18 01:56:43;;;;;;;0.00;0.00;;;11.40;99.90;;;;;;5033870;28;20109;-73
2022/02/18 01:59:09;;;;;;;0.00;0.00;;;11.30;99.90;;;;;;5032437;28;20057;-75
2022/02/18 02:01:35;;;;;;;0.00;0.00;;;11.30;99.90;;;;;;5032264;28;20052;-74
2022/02/18 02:04:00;;;;;;;23.45;0.55;;;11.30;99.90;;;;;;5032622;28;20159;-72
2022/02/18 02:06:26;;;;;;;0.20;0.20;;;11.30;99.90;;;;;;5032442;28;20095;-72
2022/02/18 02:08:52;;;;;;;0.80;0.65;;;11.30;99.90;;;;;;5030632;28;20484;-73
2022/02/18 02:11:17;;;;;;;3.65;1.35;;;11.30;99.90;;;;;;5031867;28;20017;-73
2022/02/18 02:13:45;;;;;;;0.00;0.00;;;11.30;99.90;;;;;;5034150;28;20532;-72
2022/02/18 02:16:14;;;;;;;0.17;0.17;;;11.30;99.90;;;;;;5035754;28;20013;-73
2022/02/18 02:18:41;;;;;;;2.72;1.15;;;11.30;99.90;;;;;;5035429;28;20030;-73
2022/02/18 02:21:10;;;;;;;0.05;0.05;;;11.30;99.90;;;;;;5035738;28;20076;-73
2022/02/18 02:23:35;;;;;;;0.00;0.00;;;11.30;99.90;;;;;;5035259;28;20033;-73
2022/02/18 02:26:01;;;;;;;1.25;0.63;;;11.30;99.90;;;;;;5035990;28;20041;-74
2022/02/18 02:28:27;;;;;;;0.00;0.00;;;11.40;99.90;;;;;;5036675;28;20033;-74
2022/02/18 02:30:52;;;;;;;0.43;0.43;;;11.30;99.90;;;;;;5034788;28;20032;-71
2022/02/18 02:33:18;;;;;;;6.88;2.13;;;11.30;99.90;;;;;;5035173;28;20013;-73
2022/02/18 02:35:44;;;;;;;0.00;0.00;;;11.30;99.90;;;;;;5036069;28;20104;-73
2022/02/18 02:38:10;;;;;;;0.10;0.10;;;11.30;99.90;;;;;;5034761;28;20032;-73
2022/02/18 02:40:35;;;;;;;0.52;0.52;;;11.30;99.90;;;;;;5035231;28;20493;-73
2022/02/18 02:43:01;;;;;;;0.20;0.10;;;11.40;99.90;;;;;;5033861;28;20128;-73
2022/02/18 02:45:27;;;;;;;0.68;0.38;;;11.30;99.90;;;;;;5034956;28;20032;-72
2022/02/18 02:47:53;;;;;;;0.00;0.00;;;11.30;99.90;;;;;;5034833;28;20026;-73
2022/02/18 02:50:19;;;;;;;0.00;0.00;;;11.30;99.90;;;;;;5033705;28;20029;-72
2022/02/18 02:52:45;;;;;;;1.52;1.27;;;11.30;99.90;;;;;;5034924;28;20056;-73
2022/02/18 02:55:14;;;;;;;0.25;0.25;;;11.30;99.90;;;;;;5034822;28;20469;-74
2022/02/18 02:57:44;;;;;;;0.10;0.10;;;11.30;99.90;;;;;;5035201;28;20064;-73
2022/02/18 03:00:11;;;;;;;0.00;0.00;;;11.30;99.90;;;;;;5035366;28;20053;-73
2022/02/18 03:02:37;;;;;;;0.00;0.00;;;11.30;99.90;;;;;;5033421;28;20029;-74
2022/02/18 03:05:03;;;;;;;0.10;0.10;;;11.30;99.90;;;;;;5035029;28;20052;-73
2022/02/18 03:07:30;;;;;;;0.00;0.00;;;11.30;99.90;;;;;;5033244;28;20030;-73
2022/02/18 03:09:55;;;;;;;1.33;1.23;;;11.30;99.90;;;;;;5033834;28;20025;-74
2022/02/18 03:12:21;;;;;;;0.75;0.75;;;11.30;99.90;;;;;;5033234;28;20481;-74
2022/02/18 03:14:47;;;;;;;0.43;0.43;;;11.30;99.90;;;;;;5034762;28;20029;-71
2022/02/18 03:17:13;;;;;;;0.90;0.55;;;11.30;99.90;;;;;;5030270;28;20022;-72
2022/02/18 03:19:38;;;;;;;0.00;0.00;;;11.30;99.90;;;;;;5013918;28;20033;-73
2022/02/18 03:22:06;;;;;;;0.00;0.00;;;11.30;99.90;;;;;;5014930;28;20105;-73
2022/02/18 03:24:32;;;;;;;0.00;0.00;;;11.30;99.90;;;;;;5014009;28;20026;-73
2022/02/18 03:26:58;;;;;;;0.13;0.13;;;11.30;99.90;;;;;;5013481;28;20030;-73
2022/02/18 03:29:25;;;;;;;0.60;0.50;;;11.30;99.90;;;;;;5014594;28;20025;-74
2022/02/18 03:31:50;;;;;;;0.00;0.00;;;11.30;99.90;;;;;;5014951;28;20018;-73
2022/02/18 03:34:16;;;;;;;0.00;0.00;;;11.30;99.90;;;;;;5014752;28;20033;-73
2022/02/18 03:36:41;;;;;;;1.65;0.35;;;11.30;99.90;;;;;;5019552;28;20036;-73
2022/02/18 03:39:09;;;;;;;0.00;0.00;;;11.30;99.90;;;;;;5034228;28;20528;-73
2022/02/18 03:41:35;;;;;;;0.20;0.20;;;11.30;99.90;;;;;;5034670;28;20431;-73
2022/02/18 03:44:01;;;;;;;0.75;0.38;;;11.30;99.90;;;;;;5034008;28;20049;-73
2022/02/18 03:46:26;;;;;;;0.90;0.85;;;11.30;99.90;;;;;;5034188;28;20029;-73
2022/02/18 03:48:52;;;;;;;0.00;0.00;;;11.30;99.90;;;;;;5034013;28;20404;-72
2022/02/18 03:51:18;;;;;;;0.00;0.00;;;11.30;99.90;;;;;;5033841;28;20029;-73
2022/02/18 03:53:45;;;;;;;4.43;2.35;;;11.30;99.90;;;;;;5032952;28;20413;-73
2022/02/18 03:56:12;;;;;;;1.55;0.80;;;11.30;99.90;;;;;;5034465;28;20026;-73
2022/02/18 03:58:38;;;;;;;0.00;0.00;;;11.30;99.90;;;;;;5033380;28;20021;-73
2022/02/18 04:01:03;;;;;;;0.00;0.00;;;11.30;99.90;;;;;;5034015;28;20502;-74
2022/02/18 04:03:29;;;;;;;0.65;0.20;;;11.30;99.90;;;;;;5033951;28;20105;-73
2022/02/18 04:05:55;;;;;;;0.00;0.00;;;11.30;99.90;;;;;;5033862;28;20032;-73
2022/02/18 04:08:20;;;;;;;1.65;0.85;;;11.30;99.90;;;;;;5033371;28;20096;-74
2022/02/18 04:10:46;;;;;;;3.20;2.45;;;11.30;99.90;;;;;;5033236;28;20445;-73
2022/02/18 04:13:12;;;;;;;0.08;0.08;;;11.30;99.90;;;;;;5033362;28;20188;-73
2022/02/18 04:15:38;;;;;;;0.45;0.45;;;11.30;99.90;;;;;;5032663;28;20052;-73
2022/02/18 04:18:04;;;;;;;0.60;0.60;;;11.30;99.90;;;;;;5013834;28;20559;-73
2022/02/18 04:20:30;;;;;;;0.90;0.43;;;11.30;99.90;;;;;;5013875;28;20025;-73
2022/02/18 04:22:56;;;;;;;0.00;0.00;;;11.30;99.90;;;;;;5013695;28;20057;-74
2022/02/18 04:25:21;;;;;;;0.00;0.00;;;11.30;99.90;;;;;;5013667;28;20116;-74
2022/02/18 04:27:59;;;;;;;1.35;0.52;;;11.30;99.90;;;;;;5014229;28;20436;-73
2022/02/18 04:30:25;;;;;;;0.55;0.47;;;11.20;99.90;;;;;;5013036;28;20018;-73
2022/02/18 04:32:54;;;;;;;0.00;0.00;;;11.20;99.90;;;;;;5013628;28;20095;-73
2022/02/18 04:35:20;;;;;;;0.08;0.08;;;11.30;99.90;;;;;;5014335;28;20025;-73
2022/02/18 04:37:46;;;;;;;21.92;1.25;;;11.20;99.90;;;;;;5026052;28;20083;-73
2022/02/18 04:40:14;;;;;;;0.00;0.00;;;11.20;99.90;;;;;;5033261;28;20436;-73
2022/02/18 04:42:40;;;;;;;0.22;0.22;;;11.20;99.90;;;;;;5032866;28;20504;-73
2022/02/18 04:45:06;;;;;;;0.17;0.17;;;11.20;99.90;;;;;;5034101;28;20079;-72
2022/02/18 04:47:32;;;;;;;1.60;0.65;;;11.20;99.90;;;;;;5032731;28;20029;-72
2022/02/18 04:49:58;;;;;;;1.10;0.90;;;11.20;99.90;;;;;;5032755;28;20111;-73
2022/02/18 04:52:23;;;;;;;14.70;0.80;;;11.20;99.90;;;;;;5033462;28;20484;-73
2022/02/18 04:54:49;;;;;;;0.00;0.00;;;11.10;99.90;;;;;;5032592;28;20029;-74
2022/02/18 04:57:15;;;;;;;1.42;1.13;;;11.10;99.90;;;;;;5033004;28;20028;-74
2022/02/18 04:59:41;;;;;;;0.85;0.85;;;11.10;99.90;;;;;;5032750;28;20029;-74
2022/02/18 05:02:06;;;;;;;0.43;0.43;;;11.00;99.90;;;;;;5033376;28;20032;-74
2022/02/18 05:04:32;;;;;;;0.10;0.10;;;11.00;99.90;;;;;;5032111;28;20029;-74
2022/02/18 05:06:58;;;;;;;0.10;0.10;;;11.00;99.90;;;;;;5033143;28;20440;-74
2022/02/18 05:09:23;;;;;;;0.08;0.08;;;11.00;99.90;;;;;;5032593;28;20037;-73
2022/02/18 05:11:49;;;;;;;0.03;0.03;;;11.00;99.90;;;;;;5032051;28;20365;-74
2022/02/18 05:14:16;;;;;;;3.20;1.60;;;11.00;99.90;;;;;;5032763;28;20029;-74
2022/02/18 05:16:42;;;;;;;2.53;0.90;;;11.00;99.90;;;;;;5032914;28;20022;-74
2022/02/18 05:19:09;;;;;;;0.03;0.03;;;11.00;99.90;;;;;;5032946;28;20029;-73
2022/02/18 05:21:38;;;;;;;0.32;0.32;;;11.00;99.90;;;;;;5033311;28;20048;-74
2022/02/18 05:24:08;;;;;;;0.60;0.60;;;11.00;99.90;;;;;;5033173;28;20060;-73
2022/02/18 05:26:35;;;;;;;0.95;0.60;;;11.00;99.90;;;;;;5032979;28;20041;-74
2022/02/18 05:29:01;;;;;;;0.80;0.80;;;11.00;99.90;;;;;;5032874;28;20115;-74
2022/02/18 05:31:26;;;;;;;0.35;0.35;;;11.00;99.90;;;;;;5033201;28;20022;-73
2022/02/18 05:33:52;;;;;;;0.32;0.32;;;11.00;99.90;;;;;;5032917;28;20442;-73
2022/02/18 05:36:18;;;;;;;0.47;0.47;;;11.00;99.90;;;;;;5032524;28;20080;-74
2022/02/18 05:38:46;;;;;;;2.30;1.10;;;11.00;99.90;;;;;;5029701;28;20527;-75
2022/02/18 05:41:15;;;;;;;0.57;0.55;;;10.90;99.90;;;;;;5032863;28;20083;-74
2022/02/18 05:43:41;;;;;;;2.38;1.55;;;10.90;99.90;;;;;;5032254;28;20061;-74
2022/02/18 05:46:06;;;;;;;0.00;0.00;;;10.90;99.90;;;;;;5032694;28;20029;-74
2022/02/18 05:48:32;;;;;;;0.13;0.13;;;11.00;99.90;;;;;;5035690;28;20482;-74
2022/02/18 05:51:00;;;;;;;1.08;0.98;;;10.90;99.90;;;;;;5035782;28;20018;-74
2022/02/18 05:53:26;;;;;;;13.05;3.20;;;11.00;99.90;;;;;;5035579;28;20025;-74
2022/02/18 05:55:51;;;;;;;0.00;0.00;;;11.00;99.90;;;;;;5037270;28;20036;-73
2022/02/18 05:58:17;;;;;;;0.15;0.13;;;10.90;99.90;;;;;;5035759;28;20060;-74
2022/02/18 06:00:43;;;;;;;0.88;0.47;;;10.90;99.90;;;;;;5036002;28;20075;-73
2022/02/18 06:03:08;;;;;;;0.20;0.20;;;11.00;99.90;;;;;;5036441;28;20129;-73
2022/02/18 06:05:34;;;;;;;1.30;0.70;;;10.90;99.90;;;;;;5035979;28;20029;-73
2022/02/18 06:08:00;;;;;;;7.22;2.15;;;11.00;99.90;;;;;;5035475;28;20025;-73
2022/02/18 06:10:25;;;;;;;0.85;0.85;;;10.90;99.90;;;;;;5035535;28;20056;-72
2022/02/18 06:12:52;;;;;;;0.30;0.30;;;10.90;99.90;;;;;;5035584;28;20029;-74
2022/02/18 06:15:18;;;;;;;0.10;0.10;;;10.90;99.90;;;;;;5034638;28;20037;-74
2022/02/18 06:17:44;;;;;;;0.70;0.70;;;10.90;99.90;;;;;;5035030;28;20021;-73
2022/02/18 06:20:10;;;;;;;0.82;0.75;;;10.90;99.90;;;;;;5036074;28;20021;-73
2022/02/18 06:22:36;;;;;;;21.55;2.25;;;11.00;99.90;;;;;;5035777;28;20140;-73
2022/02/18 06:25:07;;;;;;;0.77;0.70;;;10.90;99.90;;;;;;5035020;28;20518;-74
2022/02/18 06:27:33;;;;;;;2.03;1.35;;;10.90;99.90;;;;;;5035471;28;20029;-73
2022/02/18 06:29:59;;;;;;;0.17;0.17;;;10.90;99.90;;;;;;5034393;28;20025;-74
2022/02/18 06:32:24;;;;;;;1.13;1.13;;;10.90;99.90;;;;;;5035783;28;20100;-73
2022/02/18 06:34:52;;;;;;;8.98;2.83;;;10.90;99.90;;;;;;5035601;28;20022;-73
2022/02/18 06:37:17;;;;;;;13.05;2.28;;;10.90;99.90;;;;;;5034826;28;20022;-75
2022/02/18 06:39:43;;;;;;;0.75;0.75;;;10.90;99.90;;;;;;5034558;28;20076;-74
2022/02/18 06:42:09;;;;;;;0.32;0.32;;;11.00;99.90;;;;;;5033012;28;20036;-74
2022/02/18 06:44:34;;;;;;;0.80;0.80;;;11.00;99.90;;;;;;5034921;28;20076;-73
2022/02/18 06:47:00;;;;;;;1.60;1.33;;;11.00;99.90;;;;;;5034903;28;20431;-73
2022/02/18 06:49:26;;;;;;;9.63;3.17;;;11.10;99.90;;;;;;5033650;28;20113;-72
2022/02/18 06:51:55;;;;;;;0.52;0.32;;;11.10;99.90;;;;;;5034359;28;20393;-74
2022/02/18 06:54:28;;;;;;;0.08;0.08;;;11.00;99.90;;;;;;5031805;28;20026;-75
2022/02/18 06:56:55;;;;;;;;;;;11.10;99.90;;;;;;5031018;28;20105;-73
2022/02/18 06:59:23;;;;;;;4.65;2.72;;;11.10;99.90;;;;;;5032788;28;19905;-73
2022/02/18 07:01:54;;;;;;;1.65;1.55;;;11.10;99.90;;;;;;5032992;28;20577;-72
2022/02/18 07:04:23;;;;;;;1.95;0.85;;;11.10;99.90;;;;;;5030070;28;20030;-72
2022/02/18 07:06:49;;;;;;;0.90;0.88;;;11.10;99.90;;;;;;5032101;28;20614;-73
2022/02/18 07:09:15;;;;;;;1.60;1.48;;;11.10;99.90;;;;;;5032763;28;20104;-74
2022/02/18 07:11:41;;;;;;;2.75;0.70;;;11.10;99.90;;;;;;5030396;28;20504;-75
2022/02/18 07:14:09;;;;;;;20.65;3.75;;;11.10;99.90;;;;;;5031627;28;20033;-73
2022/02/18 07:16:44;;;;;;;1.85;1.15;;;11.10;99.90;;;;;;5032563;28;20076;-74
2022/02/18 07:19:14;;;;;;;1.75;1.00;;;11.10;99.90;;;;;;5015206;28;20029;-73
2022/02/18 07:21:40;;;;;;;0.38;0.38;;;11.10;99.90;;;;;;5013010;28;20465;-72
2022/02/18 07:24:10;;;;;;;0.80;0.57;;;11.10;99.90;;;;;;5048988;28;20116;-74
2022/02/18 07:26:37;;;;;;;2.05;1.45;;;11.10;99.90;;;;;;5032851;28;20037;-74
2022/02/18 07:29:03;;;;;;;6.82;0.70;;;11.10;99.90;;;;;;5031834;28;20029;-73
2022/02/18 07:31:28;;;;;;;12.63;0.95;;;11.00;99.90;;;;;;5031802;28;20068;-73
2022/02/18 07:33:54;;;;;;;0.13;0.08;;;11.10;99.90;;;;;;5031904;28;20079;-72
2022/02/18 07:36:20;;;;;;;1.35;0.75;;;11.00;99.90;;;;;;5031845;28;20029;-72
2022/02/18 07:38:45;;;;;;;1.25;1.13;;;11.00;99.90;;;;;;5032757;28;20115;-73
2022/02/18 07:41:11;;;;;;;2.92;0.70;;;11.00;99.90;;;;;;5032835;28;20041;-73
2022/02/18 07:43:37;;;;;;;1.83;1.05;;;11.00;99.90;;;;;;5033492;28;20104;-73
2022/02/18 07:46:03;;;;;;;0.90;0.38;;;11.00;99.90;;;;;;5033405;28;20041;-72
2022/02/18 07:48:29;;;;;;;0.80;0.73;;;11.10;99.90;;;;;;5029623;28;20473;-72
2022/02/18 07:50:55;;;;;;;0.63;0.22;;;11.10;99.90;;;;;;5029763;28;20032;-73
2022/02/18 07:53:21;;;;;;;2.55;1.75;;;11.10;99.90;;;;;;5028092;28;20029;-72
2022/02/18 07:55:46;;;;;;;5.38;1.55;;;11.20;99.90;;;;;;5023315;28;20459;-72
2022/02/18 07:58:12;;;;;;;4.45;1.20;;;11.30;99.90;;;;;;5029997;28;20578;-73
2022/02/18 08:00:38;;;;;;;0.98;0.93;;;11.30;99.90;;;;;;5030844;28;20129;-73
2022/02/18 08:03:04;;;;;;;1.27;0.98;;;11.30;99.90;;;;;;5024787;28;20036;-72
2022/02/18 08:05:30;;;;;;;0.00;0.00;;;11.40;99.90;;;;;;5026975;28;20076;-73
2022/02/18 08:07:57;;;;;;;5.50;2.03;;;11.40;99.90;;;;;;5035443;28;20549;-73
2022/02/18 08:10:23;;;;;;;8.02;2.08;;;11.40;99.90;;;;;;5034241;28;20148;-73
2022/02/18 08:12:49;;;;;;;4.57;0.43;;;11.40;99.90;;;;;;5026835;28;20686;-73
2022/02/18 08:15:15;;;;;;;0.68;0.68;;;11.50;99.90;;;;;;5024694;28;20573;-73
2022/02/18 08:17:40;;;;;;;0.75;0.35;;;11.60;99.90;;;;;;5030346;28;20029;-73
2022/02/18 08:20:08;;;;;;;1.70;0.55;;;11.60;99.90;;;;;;5019462;28;20026;-73
2022/02/18 08:22:34;;;;;;;0.85;0.45;;;11.60;99.90;;;;;;5026442;28;20531;-73
2022/02/18 08:25:01;;;;;;;0.28;0.20;;;11.50;99.90;;;;;;5026450;28;20087;-72
2022/02/18 08:27:27;;;;;;;0.10;0.10;;;11.50;99.90;;;;;;5028202;28;20038;-71
2022/02/18 08:29:53;;;;;;;1.45;1.23;;;11.50;99.90;;;;;;5029210;28;20055;-73
2022/02/18 08:32:18;;;;;;;0.03;0.03;;;11.50;99.90;;;;;;5026302;28;20370;-73
2022/02/18 08:34:44;;;;;;;0.17;0.17;;;11.40;99.90;;;;;;5028317;28;20551;-73
2022/02/18 08:37:10;;;;;;;1.30;0.70;;;11.50;99.90;;;;;;5023289;28;20025;-72
2022/02/18 08:39:36;;;;;;;0.60;0.43;;;11.50;99.90;;;;;;5030531;28;20021;-73
2022/02/18 08:42:03;;;;;;;0.20;0.20;;;11.50;99.90;;;;;;5029871;28;20060;-72
2022/02/18 08:44:29;;;;;;;3.20;1.23;;;11.60;99.90;;;;;;5030262;28;20116;-74
2022/02/18 08:46:55;;;;;;;7.28;0.75;;;11.70;99.90;;;;;;5030374;28;20123;-73
2022/02/18 08:49:20;;;;;;;1.27;1.05;;;11.70;99.90;;;;;;5030073;28;20064;-73
2022/02/18 08:51:46;;;;;;;0.47;0.15;;;11.60;99.90;;;;;;5029810;28;20029;-74
2022/02/18 08:54:12;;;;;;;0.77;0.77;;;11.60;99.90;;;;;;5027225;28;20025;-73
2022/02/18 08:56:38;;;;;;;0.63;0.63;;;11.60;99.90;;;;;;5028811;28;20041;-73
2022/02/18 08:59:07;;;;;;;0.43;0.43;;;11.50;99.90;;;;;;5030025;28;20029;-74
2022/02/18 09:01:33;;;;;;;1.17;0.57;;;11.50;99.90;;;;;;5028418;28;20463;-74
2022/02/18 09:03:58;;;;;;;0.35;0.35;;;11.60;99.90;;;;;;5026247;28;20136;-74
2022/02/18 09:06:24;;;;;;;0.35;0.22;;;11.60;99.90;;;;;;5019614;28;20033;-73
2022/02/18 09:08:50;;;;;;;0.55;0.55;;;11.50;99.90;;;;;;5027811;28;20041;-74
2022/02/18 09:11:18;;;;;;;1.17;1.08;;;11.50;99.90;;;;;;5028377;28;20492;-74
2022/02/18 09:13:44;;;;;;;0.43;0.43;;;11.50;99.90;;;;;;5028921;28;20096;-74
2022/02/18 09:16:10;;;;;;;0.77;0.77;;;11.60;99.90;;;;;;5029826;28;20053;-74
2022/02/18 09:18:36;;;;;;;1.75;1.10;;;11.60;99.90;;;;;;5029840;28;20033;-74
2022/02/18 09:21:02;;;;;;;0.17;0.17;;;11.70;99.90;;;;;;5029786;28;20032;-73
2022/02/18 09:23:27;;;;;;;0.65;0.35;;;11.70;99.90;;;;;;5042110;28;20037;-73
2022/02/18 09:25:54;;;;;;;0.55;0.55;;;11.80;99.90;;;;;;5023334;28;20034;-73
2022/02/18 09:28:20;;;;;;;1.50;1.40;;;11.90;99.90;;;;;;5053789;28;20035;-71
2022/02/18 09:30:47;;;;;;;3.63;1.00;;;11.90;99.90;;;;;;5050884;28;20029;-73
2022/02/18 09:33:14;;;;;;;1.35;0.75;;;12.00;99.90;;;;;;5054856;28;20077;-73
2022/02/18 09:35:42;;;;;;;0.45;0.45;;;12.10;99.90;;;;;;5053760;28;20021;-73
2022/02/18 09:38:08;;;;;;;0.00;0.00;;;12.20;99.90;;;;;;5036411;28;20416;-74
2022/02/18 09:40:35;;;;;;;1.95;1.00;;;12.30;99.90;;;;;;5034219;28;20029;-73
2022/02/18 09:43:01;;;;;;;9.85;4.03;;;12.40;99.90;;;;;;5037697;28;20050;-73
2022/02/18 09:45:28;;;;;;;0.55;0.55;;;12.40;99.90;;;;;;5032794;28;20033;-72
2022/02/18 09:47:54;;;;;;;0.73;0.73;;;12.50;99.90;;;;;;5033000;28;20040;-75
2022/02/18 09:50:19;;;;;;;0.10;0.10;;;12.50;99.90;;;;;;5033135;28;20022;-73
2022/02/18 09:52:45;;;;;;;5.25;0.90;;;12.50;99.90;;;;;;5027805;28;20021;-73
2022/02/18 09:55:11;;;;;;;1.90;1.05;;;12.50;99.90;;;;;;5023345;28;20029;-74
2022/02/18 09:57:40;;;;;;;0.90;0.25;;;12.50;99.90;;;;;;5022792;28;20112;-71
2022/02/18 10:00:07;;;;;;;1.02;0.60;;;12.50;99.90;;;;;;5013904;28;20045;-74
2022/02/18 10:02:35;;;;;;;0.40;0.40;;;12.50;99.90;;;;;;5012644;28;20037;-73
2022/02/18 10:05:01;;;;;;;4.57;0.30;;;12.40;99.90;;;;;;5029346;28;20048;-74
2022/02/18 10:07:29;;;;;;;18.23;3.05;;;12.50;99.90;;;;;;5033180;28;20030;-74
2022/02/18 10:09:55;;;;;;;0.68;0.45;;;12.50;99.90;;;;;;5027286;28;20022;-71
2022/02/18 10:12:34;;;;;;;0.00;0.00;;;12.50;99.90;;;;;;5032469;28;20026;-72
2022/02/18 10:15:14;;;;;;;0.00;0.00;;;12.60;99.90;;;;;;5031073;28;20021;-73
2022/02/18 10:17:42;;;;;;;0.13;0.13;;;12.70;99.90;;;;;;5032720;28;20041;-73
2022/02/18 10:20:24;;;;;;;0.03;0.03;;;12.80;99.90;;;;;;5046443;28;20396;-72
2022/02/18 10:23:21;;;;;;;0.60;0.60;;;12.80;99.90;;;;;;5052796;28;20029;-73
2022/02/18 10:25:49;;;;;;;2.17;0.52;;;13.00;99.90;;;;;;5038107;28;20535;-73
2022/02/18 10:28:17;;;;;;;2.75;1.88;;;13.00;99.90;;;;;;5031280;28;20028;-72
2022/02/18 10:30:45;;;;;;;0.10;0.10;;;12.90;99.90;;;;;;5032519;28;20443;-72
2022/02/18 10:33:20;;;;;;;0.43;0.43;;;12.80;99.90;;;;;;5032047;28;20026;-72
2022/02/18 10:35:48;;;;;;;0.65;0.65;;;12.60;99.90;;;;;;5026347;28;20377;-73
2022/02/18 10:38:15;;;;;;;0.65;0.65;;;12.50;99.90;;;;;;5031214;28;20064;-72
2022/02/18 10:40:47;;;;;;;39.10;1.35;;;12.50;99.90;;;;;;5031989;28;20044;-73
2022/02/18 10:43:16;;;;;;;0.05;0.00;;;12.40;99.90;;;;;;5031788;28;20061;-73
2022/02/18 10:45:53;;;;;;;0.08;0.08;;;12.30;99.90;;;;;;5028390;28;20442;-73
2022/02/18 10:48:20;;;;;;;1.00;0.68;;;12.20;99.90;;;;;;5032064;28;20013;-71
2022/02/18 10:51:11;;;;;;;0.00;0.00;;;12.10;99.90;;;;;;5032194;28;20032;-72
2022/02/18 10:53:44;;;;;;;0.00;0.00;;;12.00;99.90;;;;;;5028716;28;20033;-73
2022/02/18 10:56:12;;;;;;;;;;;12.00;99.90;;;;;;5032712;28;20144;-75
2022/02/18 10:58:38;;;;;;;4.55;0.45;;;11.80;99.90;;;;;;5030283;28;20485;-73
2022/02/18 11:01:15;;;;;;;0.08;0.08;;;11.10;99.90;;;;;;5030369;28;20152;-74
2022/02/18 11:03:45;;;;;;;0.05;0.05;;;10.70;99.90;;;;;;5029369;28;20024;-75
2022/02/18 11:06:25;;;;;;;0.20;0.20;;;10.50;99.90;;;;;;5027184;28;20034;-76
2022/02/18 11:09:05;;;;;;;0.00;0.00;;;10.50;99.90;;;;;;5026892;28;20132;-75
2022/02/18 11:11:32;;;;;;;2.67;1.00;;;10.50;99.90;;;;;;5028446;28;20017;-76
2022/02/18 11:14:00;;;;;;;0.00;0.00;;;10.40;99.90;;;;;;5032163;28;20152;-75
2022/02/18 11:16:28;;;;;;;0.00;0.00;;;10.40;99.90;;;;;;5029800;28;20121;-75
2022/02/18 11:18:56;;;;;;;0.10;0.10;;;10.40;99.90;;;;;;5030327;28;20041;-75
2022/02/18 11:21:22;;;;;;;0.00;0.00;;;10.40;99.90;;;;;;5029569;28;20026;-74
2022/02/18 11:23:48;;;;;;;0.00;0.00;;;10.30;99.90;;;;;;5024081;28;20033;-74
2022/02/18 11:26:19;;;;;;;0.47;0.47;;;10.30;99.90;;;;;;5031730;28;20044;-75
2022/02/18 11:28:46;;;;;;;0.00;0.00;;;10.30;99.90;;;;;;5030662;28;20067;-74
2022/02/18 11:31:22;;;;;;;0.85;0.75;;;10.40;99.90;;;;;;5031007;28;20022;-73
2022/02/18 11:34:12;;;;;;;2.38;0.80;;;10.40;99.90;;;;;;5028015;28;20049;-73
2022/02/18 11:37:07;;;;;;;1.55;0.80;;;10.40;99.90;;;;;;5029159;28;20476;-73
2022/02/18 11:40:09;;;;;;;3.08;0.28;;;10.50;99.90;;;;;;5027003;28;20025;-73
2022/02/18 11:42:35;;;;;;;0.22;0.22;;;10.50;99.90;;;;;;5015338;28;20033;-72
2022/02/18 11:45:01;;;;;;;3.90;1.55;;;10.50;99.90;;;;;;5031592;28;20596;-73
2022/02/18 11:47:34;;;;;;;0.20;0.20;;;10.40;99.90;;;;;;5030453;28;20032;-74
2022/02/18 11:50:11;;;;;;;0.63;0.63;;;10.40;99.90;;;;;;5031340;28;20021;-74
2022/02/18 11:52:49;;;;;;;1.13;1.08;;;10.40;99.90;;;;;;5033073;28;20041;-73
2022/02/18 11:55:35;;;;;;;0.17;0.17;;;10.40;99.90;;;;;;5027775;28;20018;-74
2022/02/18 11:58:03;;;;;;;0.00;0.00;;;10.30;99.90;;;;;;5028030;28;20485;-74
2022/02/18 12:00:48;;;;;;;0.00;0.00;;;10.30;99.90;;;;;;5030082;28;20088;-72
2022/02/18 12:03:19;;;;;;;0.00;0.00;;;10.10;99.90;;;;;;5030777;28;20131;-75
2022/02/18 12:06:09;;;;;;;0.00;0.00;;;10.10;99.90;;;;;;5030304;28;20111;-74
2022/02/18 12:08:57;;;;;;;1.02;0.40;;;10.10;99.90;;;;;;5038620;28;20046;-73
2022/02/18 12:11:23;;;;;;;1.05;0.73;;;10.10;99.90;;;;;;5023394;28;20029;-74
2022/02/18 12:13:57;;;;;;;0.10;0.10;;;10.10;99.90;;;;;;5030051;28;20026;-73
2022/02/18 12:16:24;;;;;;;0.15;0.05;;;10.00;99.90;;;;;;5030137;28;20045;-73
2022/02/18 12:19:13;;;;;;;1.13;1.02;;;10.00;99.90;;;;;;5027885;28;20029;-74
2022/02/18 12:22:01;;;;;;;0.20;0.20;;;10.10;99.90;;;;;;5027884;28;20144;-74
2022/02/18 12:24:33;;;;;;;0.80;0.80;;;10.20;99.90;;;;;;5030859;28;20021;-74
2022/02/18 12:27:23;;;;;;;0.38;0.38;;;10.30;99.90;;;;;;5029591;28;20056;-73
2022/02/18 12:29:53;;;;;;;0.25;0.20;;;10.40;99.90;;;;;;5025480;28;20449;-73
2022/02/18 12:32:20;;;;;;;1.13;1.02;;;10.50;99.90;;;;;;5027751;28;20033;-73
2022/02/18 12:35:17;;;;;;;0.00;0.00;;;10.70;99.90;;;;;;5026756;28;20111;-73
2022/02/18 12:37:43;;;;;;;0.32;0.32;;;10.80;99.90;;;;;;5028417;28;20026;-73
2022/02/18 12:40:17;;;;;;;0.00;0.00;;;10.80;99.90;;;;;;5031094;28;20481;-73
2022/02/18 12:42:43;;;;;;;5.00;0.70;;;10.90;99.90;;;;;;5030197;28;20128;-74
2022/02/18 12:45:11;;;;;;;0.47;0.45;;;10.90;99.90;;;;;;5030426;28;20036;-72
2022/02/18 12:47:38;;;;;;;0.05;0.05;;;10.90;99.90;;;;;;5021695;28;20029;-73
2022/02/18 12:50:11;;;;;;;0.05;0.05;;;10.90;99.90;;;;;;5029618;28;20583;-73
2022/02/18 12:52:39;;;;;;;0.05;0.05;;;10.90;99.90;;;;;;5025494;28;20748;-72